METAR Data
IDs: Format: Raw Decoded Include TAF

Data at: 0224 UTC 24 Oct 2019

METAR for:KCSQ (Creston Muni, IA, US)
Text:KCSQ 240215Z AUTO 36012G19KT 10SM OVC012 05/03 A3010 RMK AO2
Temperature: 5.0°C ( 41°F)
Dewpoint: 3.0°C ( 37°F) [RH = 87%]
Pressure (altimeter):30.10 inches Hg (1019.4 mb)
Winds:from the N (360 degrees) at 14 MPH (12 knots; 6.2 m/s) gusting to 22 MPH (19 knots; 9.8 m/s)
Visibility:10 or more sm (16+ km)
Ceiling:1200 feet AGL
Clouds: overcast cloud deck at 1200 feet AGL
QC Flag:automated observation with no human augmentation